SLRI/RIB METAR and TAF weather

Enter ICAO airport designator
Station Type Date Time Source
SLRI METAR 2019/02/21 16:00 UTC NOAA

SLRI 211600Z 36004KT 9999 BKN015 BKN080 28/24 Q1014


Station Type Date Time Source
SLRI Decoded METAR 2019/02/21 16:00 UTC NOAA

Riberalta, Bolivia (SLRI) 11-00S 066-07W
Feb 21, 2019 - 11:00 AM EST / 2019.02.21 1600 UTC
Wind: from the N (360 degrees) at 5 MPH (4 KT):0
Visibility: greater than 7 mile(s):0
Sky conditions: mostly cloudy
Temperature: 82 F (28 C)
Dew Point: 75 F (24 C)
Relative Humidity: 78%
Pressure (altimeter): 29.94 in. Hg (1014 hPa)
ob: SLRI 211600Z 36004KT 9999 BKN015 BKN080 28/24 Q1014
cycle: 16

Station Type Date Time Source
SLRI TAF 2015/11/18 00:29 UTC NOAA

TAF SLRI 182200Z 1900/1924 00000KT 9999 FEW015 TX37/1919Z TN23/1910Z
BECMG 1912/1914 33011KT SCT020
TEMPO 1919/1922 8000 VCSH FEW020 FEW023CB BKN080


Example: see airport list